sensor_id;sensor_type;location;lat;lon;timestamp;pressure;altitude;pressure_sealevel;temperature;humidity
10852;BME280;5479;52.046;6.314;2023-04-20T00:01:45;102224.53;;;6.84;48.85
10852;BME280;5479;52.046;6.314;2023-04-20T00:04:13;102213.31;;;6.76;49.40
10852;BME280;5479;52.046;6.314;2023-04-20T00:06:43;102202.66;;;6.81;49.67
10852;BME280;5479;52.046;6.314;2023-04-20T00:09:12;102195.81;;;6.74;50.10
10852;BME280;5479;52.046;6.314;2023-04-20T00:11:40;102197.75;;;6.64;50.39
10852;BME280;5479;52.046;6.314;2023-04-20T00:14:08;102200.44;;;6.61;50.27
10852;BME280;5479;52.046;6.314;2023-04-20T00:16:36;102194.22;;;6.65;50.51
10852;BME280;5479;52.046;6.314;2023-04-20T00:19:04;102184.59;;;6.64;50.82
10852;BME280;5479;52.046;6.314;2023-04-20T00:21:39;102192.97;;;6.41;51.34
10852;BME280;5479;52.046;6.314;2023-04-20T00:24:09;102185.84;;;6.46;51.12
10852;BME280;5479;52.046;6.314;2023-04-20T00:26:37;102163.81;;;6.52;50.75
10852;BME280;5479;52.046;6.314;2023-04-20T00:29:06;102168.19;;;6.51;51.17
10852;BME280;5479;52.046;6.314;2023-04-20T00:31:36;102158.53;;;6.52;51.34
10852;BME280;5479;52.046;6.314;2023-04-20T00:34:04;102155.94;;;6.50;51.32
10852;BME280;5479;52.046;6.314;2023-04-20T00:36:32;102155.22;;;6.44;51.96
10852;BME280;5479;52.046;6.314;2023-04-20T00:39:00;102144.63;;;6.45;51.91
10852;BME280;5479;52.046;6.314;2023-04-20T00:41:29;102143.84;;;6.42;52.37
10852;BME280;5479;52.046;6.314;2023-04-20T00:43:57;102140.19;;;6.49;51.94
10852;BME280;5479;52.046;6.314;2023-04-20T00:46:25;102133.06;;;6.54;52.47
10852;BME280;5479;52.046;6.314;2023-04-20T00:48:53;102121.47;;;6.62;52.28
10852;BME280;5479;52.046;6.314;2023-04-20T00:51:22;102122.41;;;6.58;52.59
10852;BME280;5479;52.046;6.314;2023-04-20T00:53:50;102105.69;;;6.61;53.18
10852;BME280;5479;52.046;6.314;2023-04-20T00:56:18;102117.84;;;6.68;53.18
10852;BME280;5479;52.046;6.314;2023-04-20T00:58:47;102112.56;;;6.68;53.30
10852;BME280;5479;52.046;6.314;2023-04-20T01:01:16;102107.25;;;6.71;53.86
10852;BME280;5479;52.046;6.314;2023-04-20T01:03:43;102107.16;;;6.74;54.04
10852;BME280;5479;52.046;6.314;2023-04-20T01:06:12;102096.53;;;6.77;54.31
10852;BME280;5479;52.046;6.314;2023-04-20T01:08:45;102095.59;;;6.80;54.67
10852;BME280;5479;52.046;6.314;2023-04-20T01:11:13;102095.03;;;6.67;55.01
10852;BME280;5479;52.046;6.314;2023-04-20T01:13:42;102081.03;;;6.65;55.63
10852;BME280;5479;52.046;6.314;2023-04-20T01:16:12;102087.41;;;6.55;56.64
10852;BME280;5479;52.046;6.314;2023-04-20T01:18:41;102079.38;;;6.61;56.63
10852;BME280;5479;52.046;6.314;2023-04-20T01:21:10;102073.16;;;6.63;56.65
10852;BME280;5479;52.046;6.314;2023-04-20T01:23:40;102076.97;;;6.52;57.84
10852;BME280;5479;52.046;6.314;2023-04-20T01:26:09;102071.88;;;6.43;58.85
10852;BME280;5479;52.046;6.314;2023-04-20T01:28:38;102065.69;;;6.47;59.94
10852;BME280;5479;52.046;6.314;2023-04-20T01:31:07;102061.31;;;6.46;60.49
10852;BME280;5479;52.046;6.314;2023-04-20T01:33:35;102050.78;;;6.46;61.80
10852;BME280;5479;52.046;6.314;2023-04-20T01:36:04;102046.25;;;6.51;62.90
10852;BME280;5479;52.046;6.314;2023-04-20T01:38:33;102048.19;;;6.44;64.20
10852;BME280;5479;52.046;6.314;2023-04-20T01:41:05;102043.00;;;6.40;65.78
10852;BME280;5479;52.046;6.314;2023-04-20T01:43:35;102034.09;;;6.47;66.70
10852;BME280;5479;52.046;6.314;2023-04-20T01:46:04;102034.03;;;6.50;67.40
10852;BME280;5479;52.046;6.314;2023-04-20T01:48:32;102027.22;;;6.40;69.24
10852;BME280;5479;52.046;6.314;2023-04-20T01:51:00;102035.09;;;6.41;70.74
10852;BME280;5479;52.046;6.314;2023-04-20T01:53:28;102026.38;;;6.39;71.91
10852;BME280;5479;52.046;6.314;2023-04-20T01:55:57;102017.63;;;6.39;73.20
10852;BME280;5479;52.046;6.314;2023-04-20T01:58:26;102020.88;;;6.48;73.94
10852;BME280;5479;52.046;6.314;2023-04-20T02:00:54;102014.63;;;6.54;74.36
10852;BME280;5479;52.046;6.314;2023-04-20T02:03:22;102012.88;;;6.53;75.88
10852;BME280;5479;52.046;6.314;2023-04-20T02:05:50;101996.06;;;6.60;76.35
10852;BME280;5479;52.046;6.314;2023-04-20T02:08:18;102001.28;;;6.61;77.22
10852;BME280;5479;52.046;6.314;2023-04-20T02:10:46;101994.25;;;6.62;78.48
10852;BME280;5479;52.046;6.314;2023-04-20T02:13:14;101995.00;;;6.67;78.75
10852;BME280;5479;52.046;6.314;2023-04-20T02:15:42;101994.84;;;6.73;78.98
10852;BME280;5479;52.046;6.314;2023-04-20T02:18:10;101983.66;;;6.63;81.54
10852;BME280;5479;52.046;6.314;2023-04-20T02:20:38;101987.97;;;6.67;81.62
10852;BME280;5479;52.046;6.314;2023-04-20T02:23:06;101987.19;;;6.64;82.60
10852;BME280;5479;52.046;6.314;2023-04-20T02:25:35;101992.22;;;6.73;82.89
10852;BME280;5479;52.046;6.314;2023-04-20T02:28:03;101979.13;;;6.70;83.55
10852;BME280;5479;52.046;6.314;2023-04-20T02:30:32;101979.94;;;6.72;84.45
10852;BME280;5479;52.046;6.314;2023-04-20T02:33:01;101976.09;;;6.85;83.78
10852;BME280;5479;52.046;6.314;2023-04-20T02:35:29;101971.97;;;6.77;85.19
10852;BME280;5479;52.046;6.314;2023-04-20T02:37:57;101971.72;;;6.86;85.60
10852;BME280;5479;52.046;6.314;2023-04-20T02:40:25;101957.47;;;6.94;85.84
10852;BME280;5479;52.046;6.314;2023-04-20T02:42:53;101962.94;;;6.85;86.76
10852;BME280;5479;52.046;6.314;2023-04-20T02:45:21;101962.94;;;6.87;87.99
10852;BME280;5479;52.046;6.314;2023-04-20T02:47:49;101962.59;;;6.99;86.97
10852;BME280;5479;52.046;6.314;2023-04-20T02:50:18;101958.88;;;7.07;86.67
10852;BME280;5479;52.046;6.314;2023-04-20T02:52:46;101958.63;;;7.16;87.19
10852;BME280;5479;52.046;6.314;2023-04-20T02:55:14;101951.47;;;7.21;87.12
10852;BME280;5479;52.046;6.314;2023-04-20T02:57:42;101946.94;;;7.26;87.75
10852;BME280;5479;52.046;6.314;2023-04-20T03:00:11;101949.41;;;7.33;87.97
10852;BME280;5479;52.046;6.314;2023-04-20T03:02:39;101944.16;;;7.31;88.57
10852;BME280;5479;52.046;6.314;2023-04-20T03:05:08;101935.06;;;7.43;88.41
10852;BME280;5479;52.046;6.314;2023-04-20T03:07:37;101942.16;;;7.41;88.61
10852;BME280;5479;52.046;6.314;2023-04-20T03:10:07;101938.50;;;7.45;88.92
10852;BME280;5479;52.046;6.314;2023-04-20T03:12:35;101939.22;;;7.51;88.82
10852;BME280;5479;52.046;6.314;2023-04-20T03:15:03;101937.25;;;7.58;88.68
10852;BME280;5479;52.046;6.314;2023-04-20T03:17:31;101936.44;;;7.56;89.27
10852;BME280;5479;52.046;6.314;2023-04-20T03:19:59;101935.63;;;7.54;89.05
10852;BME280;5479;52.046;6.314;2023-04-20T03:22:27;101929.34;;;7.58;88.11
10852;BME280;5479;52.046;6.314;2023-04-20T03:24:57;101928.38;;;7.60;88.04
10852;BME280;5479;52.046;6.314;2023-04-20T03:27:24;101936.06;;;7.68;87.34
10852;BME280;5479;52.046;6.314;2023-04-20T03:29:52;101929.66;;;7.76;86.01
10852;BME280;5479;52.046;6.314;2023-04-20T03:32:20;101930.47;;;7.78;85.64
10852;BME280;5479;52.046;6.314;2023-04-20T03:34:49;101929.41;;;7.85;83.73
10852;BME280;5479;52.046;6.314;2023-04-20T03:37:17;101919.63;;;7.89;82.28
10852;BME280;5479;52.046;6.314;2023-04-20T03:39:45;101929.00;;;7.98;81.53
10852;BME280;5479;52.046;6.314;2023-04-20T03:42:14;101928.09;;;7.99;80.29
10852;BME280;5479;52.046;6.314;2023-04-20T03:44:42;101926.16;;;8.05;80.04
10852;BME280;5479;52.046;6.314;2023-04-20T03:47:10;101931.44;;;8.05;79.21
10852;BME280;5479;52.046;6.314;2023-04-20T03:49:38;101914.75;;;8.05;79.62
10852;BME280;5479;52.046;6.314;2023-04-20T03:52:06;101912.03;;;8.06;79.63
10852;BME280;5479;52.046;6.314;2023-04-20T03:54:36;101911.06;;;8.09;79.74
10852;BME280;5479;52.046;6.314;2023-04-20T03:57:04;101905.81;;;8.09;78.83
10852;BME280;5479;52.046;6.314;2023-04-20T03:59:41;101890.84;;;8.09;79.70
10852;BME280;5479;52.046;6.314;2023-04-20T04:02:09;101904.84;;;8.11;79.67
10852;BME280;5479;52.046;6.314;2023-04-20T04:04:39;101892.59;;;8.10;80.15
10852;BME280;5479;52.046;6.314;2023-04-20T04:07:07;101885.56;;;8.09;80.34
10852;BME280;5479;52.046;6.314;2023-04-20T04:09:35;101880.97;;;8.16;80.78
10852;BME280;5479;52.046;6.314;2023-04-20T04:12:14;101872.28;;;8.12;81.62
10852;BME280;5479;52.046;6.314;2023-04-20T04:14:44;101882.13;;;8.07;82.97
10852;BME280;5479;52.046;6.314;2023-04-20T04:17:13;101882.13;;;8.07;83.68
10852;BME280;5479;52.046;6.314;2023-04-20T04:19:41;101874.16;;;8.09;84.71
10852;BME280;5479;52.046;6.314;2023-04-20T04:22:09;101856.59;;;8.08;85.88
10852;BME280;5479;52.046;6.314;2023-04-20T04:24:37;101868.00;;;8.08;87.74
10852;BME280;5479;52.046;6.314;2023-04-20T04:27:06;101866.13;;;8.12;87.90
10852;BME280;5479;52.046;6.314;2023-04-20T04:29:34;101870.44;;;8.14;89.04
10852;BME280;5479;52.046;6.314;2023-04-20T04:32:06;101879.38;;;8.10;90.23
10852;BME280;5479;52.046;6.314;2023-04-20T04:34:35;101870.75;;;8.05;91.56
10852;BME280;5479;52.046;6.314;2023-04-20T04:37:03;101867.34;;;8.02;93.10
10852;BME280;5479;52.046;6.314;2023-04-20T04:39:31;101856.72;;;8.03;93.04
10852;BME280;5479;52.046;6.314;2023-04-20T04:41:59;101873.34;;;8.07;93.88
10852;BME280;5479;52.046;6.314;2023-04-20T04:44:27;101866.47;;;8.01;95.07
10852;BME280;5479;52.046;6.314;2023-04-20T04:46:57;101870.00;;;8.02;95.84
10852;BME280;5479;52.046;6.314;2023-04-20T04:49:26;101879.72;;;8.00;96.64
10852;BME280;5479;52.046;6.314;2023-04-20T04:51:55;101869.91;;;8.03;96.72
10852;BME280;5479;52.046;6.314;2023-04-20T04:54:23;101875.19;;;8.03;96.62
10852;BME280;5479;52.046;6.314;2023-04-20T04:56:51;101873.69;;;7.96;97.55
10852;BME280;5479;52.046;6.314;2023-04-20T04:59:19;101867.28;;;8.03;97.28
10852;BME280;5479;52.046;6.314;2023-04-20T05:01:47;101866.47;;;8.01;98.31
10852;BME280;5479;52.046;6.314;2023-04-20T05:04:15;101867.25;;;8.05;97.01
10852;BME280;5479;52.046;6.314;2023-04-20T05:06:44;101861.19;;;8.01;96.91
10852;BME280;5479;52.046;6.314;2023-04-20T05:09:12;101871.84;;;7.98;97.27
10852;BME280;5479;52.046;6.314;2023-04-20T05:11:40;101871.75;;;8.01;98.06
10852;BME280;5479;52.046;6.314;2023-04-20T05:14:08;101861.19;;;8.01;97.14
10852;BME280;5479;52.046;6.314;2023-04-20T05:16:36;101865.75;;;7.96;97.38
10852;BME280;5479;52.046;6.314;2023-04-20T05:19:04;101870.00;;;8.00;97.47
10852;BME280;5479;52.046;6.314;2023-04-20T05:21:32;101868.41;;;7.96;97.23
10852;BME280;5479;52.046;6.314;2023-04-20T05:24:01;101865.91;;;7.92;96.79
10852;BME280;5479;52.046;6.314;2023-04-20T05:26:29;101869.47;;;7.90;96.34
10852;BME280;5479;52.046;6.314;2023-04-20T05:28:57;101863.31;;;7.90;96.51
10852;BME280;5479;52.046;6.314;2023-04-20T05:31:24;101871.94;;;7.95;95.08
10852;BME280;5479;52.046;6.314;2023-04-20T05:33:53;101877.22;;;7.95;96.27
10852;BME280;5479;52.046;6.314;2023-04-20T05:36:22;101877.22;;;7.95;96.00
10852;BME280;5479;52.046;6.314;2023-04-20T05:38:50;101876.59;;;7.87;95.53
10852;BME280;5479;52.046;6.314;2023-04-20T05:41:20;101872.88;;;7.94;95.42
10852;BME280;5479;52.046;6.314;2023-04-20T05:43:52;101873.28;;;8.08;96.13
10852;BME280;5479;52.046;6.314;2023-04-20T05:46:20;101874.72;;;8.18;91.83
10852;BME280;5479;52.046;6.314;2023-04-20T05:48:48;101869.66;;;8.11;92.16
10852;BME280;5479;52.046;6.314;2023-04-20T05:51:16;101867.56;;;8.22;93.12
10852;BME280;5479;52.046;6.314;2023-04-20T05:53:44;101864.59;;;8.32;91.99
10852;BME280;5479;52.046;6.314;2023-04-20T05:56:12;101870.25;;;8.20;92.15
10852;BME280;5479;52.046;6.314;2023-04-20T05:58:41;101868.72;;;8.13;92.72
10852;BME280;5479;52.046;6.314;2023-04-20T06:01:09;101869.91;;;8.03;94.50
10852;BME280;5479;52.046;6.314;2023-04-20T06:03:37;101872.81;;;7.96;94.72
10852;BME280;5479;52.046;6.314;2023-04-20T06:06:06;101869.81;;;8.06;95.10
10852;BME280;5479;52.046;6.314;2023-04-20T06:08:34;101864.47;;;8.09;94.23
10852;BME280;5479;52.046;6.314;2023-04-20T06:11:02;101869.13;;;8.29;93.21
10852;BME280;5479;52.046;6.314;2023-04-20T06:13:30;101871.41;;;8.39;91.65
10852;BME280;5479;52.046;6.314;2023-04-20T06:16:00;101867.91;;;8.39;91.31
10852;BME280;5479;52.046;6.314;2023-04-20T06:18:28;101873.09;;;8.42;91.72
10852;BME280;5479;52.046;6.314;2023-04-20T06:20:56;101865.09;;;8.43;92.33
10852;BME280;5479;52.046;6.314;2023-04-20T06:23:25;101876.44;;;8.47;92.35
10852;BME280;5479;52.046;6.314;2023-04-20T06:25:53;101882.69;;;8.44;94.21
10852;BME280;5479;52.046;6.314;2023-04-20T06:28:21;101875.84;;;8.37;93.59
10852;BME280;5479;52.046;6.314;2023-04-20T06:30:49;101866.41;;;8.32;95.01
10852;BME280;5479;52.046;6.314;2023-04-20T06:33:18;101871.06;;;8.22;94.34
10852;BME280;5479;52.046;6.314;2023-04-20T06:35:46;101869.38;;;8.20;96.36
10852;BME280;5479;52.046;6.314;2023-04-20T06:38:17;101875.47;;;8.22;95.17
10852;BME280;5479;52.046;6.314;2023-04-20T06:40:44;101874.50;;;8.24;97.08
10852;BME280;5479;52.046;6.314;2023-04-20T06:43:12;101868.59;;;8.18;97.92
10852;BME280;5479;52.046;6.314;2023-04-20T06:45:41;101867.84;;;8.40;98.43
10852;BME280;5479;52.046;6.314;2023-04-20T06:48:09;101868.78;;;8.39;98.51
10852;BME280;5479;52.046;6.314;2023-04-20T06:50:38;101862.06;;;8.29;97.16
10852;BME280;5479;52.046;6.314;2023-04-20T06:53:06;101872.59;;;8.29;97.77
10852;BME280;5479;52.046;6.314;2023-04-20T06:55:34;101868.00;;;8.36;98.08
10852;BME280;5479;52.046;6.314;2023-04-20T06:58:02;101860.63;;;8.45;97.72
10852;BME280;5479;52.046;6.314;2023-04-20T07:00:31;101862.69;;;8.64;98.63
10852;BME280;5479;52.046;6.314;2023-04-20T07:02:59;101864.91;;;8.49;97.64
10852;BME280;5479;52.046;6.314;2023-04-20T07:05:28;101870.34;;;8.45;96.76
10852;BME280;5479;52.046;6.314;2023-04-20T07:07:57;101867.75;;;8.43;98.91
10852;BME280;5479;52.046;6.314;2023-04-20T07:10:25;101864.91;;;8.49;100.00
10852;BME280;5479;52.046;6.314;2023-04-20T07:12:53;101847.66;;;8.39;99.63
10852;BME280;5479;52.046;6.314;2023-04-20T07:15:21;101867.56;;;8.49;98.36
10852;BME280;5479;52.046;6.314;2023-04-20T07:17:49;101849.97;;;8.48;98.55
10852;BME280;5479;52.046;6.314;2023-04-20T07:20:17;101856.81;;;8.54;96.88
10852;BME280;5479;52.046;6.314;2023-04-20T07:22:45;101854.88;;;8.59;96.75
10852;BME280;5479;52.046;6.314;2023-04-20T07:25:15;101857.16;;;8.70;97.66
10852;BME280;5479;52.046;6.314;2023-04-20T07:27:43;101860.75;;;8.93;96.86
10852;BME280;5479;52.046;6.314;2023-04-20T07:30:12;101851.06;;;9.17;93.58
10852;BME280;5479;52.046;6.314;2023-04-20T07:32:40;101839.09;;;9.30;92.84
10852;BME280;5479;52.046;6.314;2023-04-20T07:35:09;101839.50;;;9.43;90.37
10852;BME280;5479;52.046;6.314;2023-04-20T07:37:37;101834.56;;;9.34;90.48
10852;BME280;5479;52.046;6.314;2023-04-20T07:40:06;101841.41;;;9.16;92.72
10852;BME280;5479;52.046;6.314;2023-04-20T07:42:36;101850.69;;;9.03;92.57
10852;BME280;5479;52.046;6.314;2023-04-20T07:45:05;101842.16;;;9.20;94.67
10852;BME280;5479;52.046;6.314;2023-04-20T07:47:34;101840.59;;;9.14;93.65
10852;BME280;5479;52.046;6.314;2023-04-20T07:50:02;101843.34;;;9.11;95.23
10852;BME280;5479;52.046;6.314;2023-04-20T07:52:30;101839.63;;;9.17;95.74
10852;BME280;5479;52.046;6.314;2023-04-20T07:54:58;101835.41;;;9.34;93.50
10852;BME280;5479;52.046;6.314;2023-04-20T07:57:27;101839.72;;;9.14;94.48
10852;BME280;5479;52.046;6.314;2023-04-20T07:59:57;101845.41;;;9.03;95.46
10852;BME280;5479;52.046;6.314;2023-04-20T08:02:24;101837.56;;;9.01;96.18
10852;BME280;5479;52.046;6.314;2023-04-20T08:04:52;101846.28;;;8.79;96.87
10852;BME280;5479;52.046;6.314;2023-04-20T08:07:20;101848.44;;;8.68;100.00
10852;BME280;5479;52.046;6.314;2023-04-20T08:09:49;101848.03;;;8.80;99.47
10852;BME280;5479;52.046;6.314;2023-04-20T08:12:17;101850.28;;;8.66;100.00
10852;BME280;5479;52.046;6.314;2023-04-20T08:14:46;101842.75;;;8.80;99.91
10852;BME280;5479;52.046;6.314;2023-04-20T08:17:16;101849.31;;;8.93;99.27
10852;BME280;5479;52.046;6.314;2023-04-20T08:19:44;101831.81;;;8.89;100.00
10852;BME280;5479;52.046;6.314;2023-04-20T08:22:12;101843.47;;;8.83;99.81
10852;BME280;5479;52.046;6.314;2023-04-20T08:24:40;101838.44;;;8.77;100.00
10852;BME280;5479;52.046;6.314;2023-04-20T08:27:08;101828.19;;;8.68;100.00
10852;BME280;5479;52.046;6.314;2023-04-20T08:29:37;101825.06;;;8.82;100.00
10852;BME280;5479;52.046;6.314;2023-04-20T08:32:05;101814.19;;;8.89;100.00
10852;BME280;5479;52.046;6.314;2023-04-20T08:34:36;101803.81;;;9.31;99.35
10852;BME280;5479;52.046;6.314;2023-04-20T08:37:04;101802.97;;;9.52;96.10
10852;BME280;5479;52.046;6.314;2023-04-20T08:39:32;101808.25;;;9.52;96.35
10852;BME280;5479;52.046;6.314;2023-04-20T08:42:00;101820.34;;;9.36;96.03
10852;BME280;5479;52.046;6.314;2023-04-20T08:44:28;101821.06;;;9.41;97.12
10852;BME280;5479;52.046;6.314;2023-04-20T08:46:57;101820.25;;;9.16;97.81
10852;BME280;5479;52.046;6.314;2023-04-20T08:49:27;101825.53;;;9.16;98.96
10852;BME280;5479;52.046;6.314;2023-04-20T08:51:56;101824.22;;;9.28;99.12
10852;BME280;5479;52.046;6.314;2023-04-20T08:54:24;101830.13;;;9.34;99.35
10852;BME280;5479;52.046;6.314;2023-04-20T08:56:55;101826.59;;;9.12;100.00
10852;BME280;5479;52.046;6.314;2023-04-20T08:59:25;101827.78;;;9.03;100.00
10852;BME280;5479;52.046;6.314;2023-04-20T09:01:53;101829.09;;;9.15;100.00
10852;BME280;5479;52.046;6.314;2023-04-20T09:04:22;101831.41;;;9.24;100.00
10852;BME280;5479;52.046;6.314;2023-04-20T09:06:52;101827.16;;;9.20;98.37
10852;BME280;5479;52.046;6.314;2023-04-20T09:09:22;101836.50;;;9.29;99.53
10852;BME280;5479;52.046;6.314;2023-04-20T09:11:59;101835.66;;;9.28;99.16
10852;BME280;5479;52.046;6.314;2023-04-20T09:14:30;101840.72;;;9.11;100.00
10852;BME280;5479;52.046;6.314;2023-04-20T09:17:08;101834.50;;;9.12;100.00
10852;BME280;5479;52.046;6.314;2023-04-20T09:19:42;101827.28;;;9.17;100.00
10852;BME280;5479;52.046;6.314;2023-04-20T09:22:11;101832.78;;;9.34;100.00
10852;BME280;5479;52.046;6.314;2023-04-20T09:24:40;101833.31;;;9.44;99.13
10852;BME280;5479;52.046;6.314;2023-04-20T09:27:15;101836.00;;;9.42;97.46
10852;BME280;5479;52.046;6.314;2023-04-20T09:29:54;101822.19;;;9.34;96.13
10852;BME280;5479;52.046;6.314;2023-04-20T09:32:30;101823.31;;;9.52;97.82
10852;BME280;5479;52.046;6.314;2023-04-20T09:34:59;101820.91;;;9.67;97.34
10852;BME280;5479;52.046;6.314;2023-04-20T09:37:28;101822.75;;;9.65;91.68
10852;BME280;5479;52.046;6.314;2023-04-20T09:39:58;101824.53;;;9.65;94.11
10852;BME280;5479;52.046;6.314;2023-04-20T09:42:27;101813.53;;;9.76;93.90
10852;BME280;5479;52.046;6.314;2023-04-20T09:44:56;101815.06;;;10.03;92.73
10852;BME280;5479;52.046;6.314;2023-04-20T09:47:24;101813.72;;;10.14;89.86
10852;BME280;5479;52.046;6.314;2023-04-20T09:49:53;101808.16;;;9.99;92.02
10852;BME280;5479;52.046;6.314;2023-04-20T09:52:23;101810.25;;;9.91;88.61
10852;BME280;5479;52.046;6.314;2023-04-20T09:54:53;101807.56;;;9.92;86.78
10852;BME280;5479;52.046;6.314;2023-04-20T09:57:24;101807.06;;;9.83;86.93
10852;BME280;5479;52.046;6.314;2023-04-20T09:59:53;101810.34;;;9.67;88.17
10852;BME280;5479;52.046;6.314;2023-04-20T10:02:21;101793.09;;;10.01;87.04
10852;BME280;5479;52.046;6.314;2023-04-20T10:04:52;101784.03;;;10.06;87.08
10852;BME280;5479;52.046;6.314;2023-04-20T10:07:24;101780.59;;;10.46;83.25
10852;BME280;5479;52.046;6.314;2023-04-20T10:10:03;101789.44;;;10.25;81.90
10852;BME280;5479;52.046;6.314;2023-04-20T10:12:33;101781.16;;;10.12;83.47
10852;BME280;5479;52.046;6.314;2023-04-20T10:15:03;101776.25;;;10.45;84.62
10852;BME280;5479;52.046;6.314;2023-04-20T10:17:31;101766.56;;;10.64;80.11
10852;BME280;5479;52.046;6.314;2023-04-20T10:19:59;101775.16;;;11.27;77.11
10852;BME280;5479;52.046;6.314;2023-04-20T10:22:28;101764.94;;;12.09;72.92
10852;BME280;5479;52.046;6.314;2023-04-20T10:24:58;101772.47;;;12.36;70.21
10852;BME280;5479;52.046;6.314;2023-04-20T10:27:27;101762.31;;;12.27;67.56
10852;BME280;5479;52.046;6.314;2023-04-20T10:30:08;101767.31;;;11.61;71.30
10852;BME280;5479;52.046;6.314;2023-04-20T10:32:37;101775.28;;;11.24;73.57
10852;BME280;5479;52.046;6.314;2023-04-20T10:35:06;101768.56;;;10.39;75.64
10852;BME280;5479;52.046;6.314;2023-04-20T10:37:46;101763.38;;;10.16;78.21
10852;BME280;5479;52.046;6.314;2023-04-20T10:40:16;101762.66;;;10.12;75.90
10852;BME280;5479;52.046;6.314;2023-04-20T10:42:44;101751.81;;;10.18;78.10
10852;BME280;5479;52.046;6.314;2023-04-20T10:45:14;101755.84;;;10.27;78.08
10852;BME280;5479;52.046;6.314;2023-04-20T10:47:42;101752.41;;;10.45;78.55
10852;BME280;5479;52.046;6.314;2023-04-20T10:50:12;101758.88;;;10.58;75.47
10852;BME280;5479;52.046;6.314;2023-04-20T10:52:41;101752.41;;;10.84;76.65
10852;BME280;5479;52.046;6.314;2023-04-20T10:55:20;101758.59;;;11.22;73.92
10852;BME280;5479;52.046;6.314;2023-04-20T10:57:49;101756.91;;;11.21;70.79
10852;BME280;5479;52.046;6.314;2023-04-20T11:00:20;101744.19;;;11.09;72.05
10852;BME280;5479;52.046;6.314;2023-04-20T11:02:50;101749.00;;;11.38;71.86
10852;BME280;5479;52.046;6.314;2023-04-20T11:05:20;101737.91;;;11.30;71.56
10852;BME280;5479;52.046;6.314;2023-04-20T11:07:52;101740.25;;;11.36;71.35
10852;BME280;5479;52.046;6.314;2023-04-20T11:10:21;101736.50;;;11.40;71.33
10852;BME280;5479;52.046;6.314;2023-04-20T11:12:49;101734.09;;;11.35;71.86
10852;BME280;5479;52.046;6.314;2023-04-20T11:15:29;101732.69;;;11.28;72.92
10852;BME280;5479;52.046;6.314;2023-04-20T11:18:05;101733.69;;;11.07;74.88
10852;BME280;5479;52.046;6.314;2023-04-20T11:20:33;101725.66;;;11.09;75.29
10852;BME280;5479;52.046;6.314;2023-04-20T11:23:01;101737.13;;;10.70;75.70
10852;BME280;5479;52.046;6.314;2023-04-20T11:25:31;101730.69;;;10.37;76.68
10852;BME280;5479;52.046;6.314;2023-04-20T11:28:04;101746.03;;;10.49;78.73
10852;BME280;5479;52.046;6.314;2023-04-20T11:30:38;101731.47;;;10.39;77.46
10852;BME280;5479;52.046;6.314;2023-04-20T11:33:07;101732.00;;;10.47;78.13
10852;BME280;5479;52.046;6.314;2023-04-20T11:35:35;101721.03;;;10.36;80.16
10852;BME280;5479;52.046;6.314;2023-04-20T11:38:04;101734.31;;;10.55;79.80
10852;BME280;5479;52.046;6.314;2023-04-20T11:40:32;101727.22;;;10.55;79.06
10852;BME280;5479;52.046;6.314;2023-04-20T11:43:00;101718.72;;;10.67;79.14
10852;BME280;5479;52.046;6.314;2023-04-20T11:45:31;101720.50;;;11.06;77.75
10852;BME280;5479;52.046;6.314;2023-04-20T11:48:01;101720.06;;;10.77;76.49
10852;BME280;5479;52.046;6.314;2023-04-20T11:50:30;101724.09;;;11.05;77.20
10852;BME280;5479;52.046;6.314;2023-04-20T11:52:56;101707.28;;;11.77;72.87
10852;BME280;5479;52.046;6.314;2023-04-20T11:55:24;101707.78;;;11.85;68.37
10852;BME280;5479;52.046;6.314;2023-04-20T11:57:57;101690.09;;;11.67;69.40
10852;BME280;5479;52.046;6.314;2023-04-20T12:00:25;101721.06;;;11.31;69.68
10852;BME280;5479;52.046;6.314;2023-04-20T12:02:53;101705.94;;;11.33;70.53
10852;BME280;5479;52.046;6.314;2023-04-20T12:05:22;101712.06;;;11.52;71.02
10852;BME280;5479;52.046;6.314;2023-04-20T12:07:50;101718.19;;;11.35;73.36
10852;BME280;5479;52.046;6.314;2023-04-20T12:10:18;101711.84;;;11.21;73.09
10852;BME280;5479;52.046;6.314;2023-04-20T12:12:46;101705.84;;;11.16;73.67
10852;BME280;5479;52.046;6.314;2023-04-20T12:15:14;101709.88;;;11.24;73.35
10852;BME280;5479;52.046;6.314;2023-04-20T12:17:43;101711.72;;;11.41;73.55
10852;BME280;5479;52.046;6.314;2023-04-20T12:20:11;101706.41;;;11.41;71.79
10852;BME280;5479;52.046;6.314;2023-04-20T12:22:41;101699.78;;;11.68;71.62
10852;BME280;5479;52.046;6.314;2023-04-20T12:25:09;101722.47;;;11.38;69.67
10852;BME280;5479;52.046;6.314;2023-04-20T12:27:37;101704.19;;;11.32;69.40
10852;BME280;5479;52.046;6.314;2023-04-20T12:30:06;101713.47;;;11.42;69.56
10852;BME280;5479;52.046;6.314;2023-04-20T12:32:34;101698.63;;;11.19;69.63
10852;BME280;5479;52.046;6.314;2023-04-20T12:35:03;101707.22;;;11.24;70.87
10852;BME280;5479;52.046;6.314;2023-04-20T12:37:31;101702.56;;;11.29;71.69
10852;BME280;5479;52.046;6.314;2023-04-20T12:40:00;101714.13;;;11.28;73.53
10852;BME280;5479;52.046;6.314;2023-04-20T12:42:31;101705.44;;;11.25;72.14
10852;BME280;5479;52.046;6.314;2023-04-20T12:44:59;101707.81;;;11.31;72.10
10852;BME280;5479;52.046;6.314;2023-04-20T12:47:27;101699.06;;;11.29;71.19
10852;BME280;5479;52.046;6.314;2023-04-20T12:49:55;101688.50;;;11.46;72.47
10852;BME280;5479;52.046;6.314;2023-04-20T12:52:23;101696.03;;;11.72;70.62
10852;BME280;5479;52.046;6.314;2023-04-20T12:54:51;101704.41;;;11.46;70.08
10852;BME280;5479;52.046;6.314;2023-04-20T12:57:21;101713.75;;;11.36;70.99
10852;BME280;5479;52.046;6.314;2023-04-20T12:59:52;101711.81;;;11.02;72.71
10852;BME280;5479;52.046;6.314;2023-04-20T13:02:20;101713.88;;;10.77;74.24
10852;BME280;5479;52.046;6.314;2023-04-20T13:04:48;101715.41;;;10.62;76.56
10852;BME280;5479;52.046;6.314;2023-04-20T13:07:16;101704.16;;;10.77;76.51
10852;BME280;5479;52.046;6.314;2023-04-20T13:09:44;101703.56;;;10.89;76.13
10852;BME280;5479;52.046;6.314;2023-04-20T13:12:12;101692.97;;;10.89;75.86
10852;BME280;5479;52.046;6.314;2023-04-20T13:14:42;101695.41;;;11.31;75.31
10852;BME280;5479;52.046;6.314;2023-04-20T13:17:10;101688.25;;;11.69;72.60